Time;durP1;ratioP1;P1;durP2;ratioP2;P2;SDS_P1;SDS_P2;PMS_P1;PMS_P2;Temp;Humidity;BMP_temperature;BMP_pressure;BME280_temperature;BME280_humidity;BME280_pressure;Samples;Min_cycle;Max_cycle;Signal;HPM_P1;HPM_P2
2022/04/17 00:01:13;;;;;;;9.65;7.50;;;10.90;99.90;;;10.90;51.52;102869.84;5072866;28;20076;-70
2022/04/17 00:03:42;;;;;;;8.65;7.68;;;10.80;99.90;;;11.03;51.21;102883.41;5055071;28;20474;-69
2022/04/17 00:06:12;;;;;;;9.43;8.40;;;10.80;99.90;;;10.85;51.73;102874.16;5072990;28;20114;-69
2022/04/17 00:08:42;;;;;;;9.98;7.50;;;10.70;99.90;;;10.98;51.46;102861.19;5073065;28;20037;-69
2022/04/17 00:11:11;;;;;;;9.15;7.57;;;10.80;99.90;;;11.01;51.32;102866.59;5073056;28;20075;-69
2022/04/17 00:13:39;;;;;;;8.98;7.72;;;10.80;99.90;;;10.98;51.21;102856.81;5071603;28;20059;-69
2022/04/17 00:16:07;;;;;;;10.80;8.40;;;10.90;99.90;;;10.86;51.71;102857.38;5075282;28;20048;-69
2022/04/17 00:18:36;;;;;;;10.18;8.27;;;10.80;99.90;;;10.64;52.21;102849.75;5076623;28;20090;-69
2022/04/17 00:21:05;;;;;;;9.45;8.45;;;10.50;99.90;;;10.56;52.36;102845.09;5076849;28;20044;-69
2022/04/17 00:23:33;;;;;;;9.35;8.10;;;10.50;99.90;;;10.53;52.81;102847.66;5076689;28;20444;-69
2022/04/17 00:26:03;;;;;;;11.50;8.43;;;10.40;99.90;;;10.46;53.11;102850.97;5076636;28;20098;-69
2022/04/17 00:28:31;;;;;;;10.33;8.80;;;10.30;99.90;;;10.40;53.07;102834.94;5076686;28;20418;-69
2022/04/17 00:31:00;;;;;;;12.27;9.25;;;10.30;99.90;;;10.45;52.96;102839.50;5058685;28;20098;-69
2022/04/17 00:33:28;;;;;;;10.07;8.57;;;10.30;99.90;;;10.47;52.85;102856.31;5076588;28;20047;-69
2022/04/17 00:35:57;;;;;;;9.70;8.38;;;10.20;99.90;;;10.62;52.86;102839.97;5076292;28;20078;-69
2022/04/17 00:38:25;;;;;;;11.23;8.73;;;10.40;99.90;;;10.41;53.21;102832.34;5076208;28;20047;-69
2022/04/17 00:40:54;;;;;;;10.00;8.25;;;10.30;99.90;;;10.42;52.90;102844.72;5075965;28;20087;-69
2022/04/17 00:43:28;;;;;;;11.57;8.60;;;10.30;99.90;;;10.60;52.97;102826.69;5076471;28;20425;-70
2022/04/17 00:45:57;;;;;;;10.48;9.13;;;10.40;99.90;;;10.53;52.50;102837.09;5076079;28;20060;-69
2022/04/17 00:48:26;;;;;;;10.02;9.00;;;10.40;99.90;;;10.80;52.49;102835.19;5076366;28;20045;-69
2022/04/17 00:50:57;;;;;;;11.60;9.23;;;10.50;99.90;;;10.69;52.38;102831.31;5075060;28;20049;-69
2022/04/17 00:53:27;;;;;;;10.20;8.77;;;10.50;99.90;;;10.67;52.27;102826.00;5075967;28;20044;-69
2022/04/17 00:55:56;;;;;;;10.80;8.85;;;10.50;99.90;;;10.64;52.58;102817.09;5074944;28;20486;-69
2022/04/17 00:58:28;;;;;;;11.25;9.43;;;10.50;99.90;;;10.70;52.27;102812.84;5076113;28;20462;-69
2022/04/17 01:00:56;;;;;;;10.05;8.98;;;10.50;99.90;;;10.56;52.48;102808.03;5076072;28;20036;-69
2022/04/17 01:03:25;;;;;;;12.73;9.40;;;10.50;99.90;;;10.60;52.56;102818.75;5058101;28;20080;-69
2022/04/17 01:05:53;;;;;;;10.43;9.38;;;10.50;99.90;;;10.68;52.69;102821.59;5075920;28;20044;-69
2022/04/17 01:08:21;;;;;;;12.40;10.02;;;10.50;99.90;;;10.54;53.04;102826.53;5075721;28;20037;-69
2022/04/17 01:10:50;;;;;;;11.98;9.68;;;10.40;99.90;;;10.65;52.79;102817.13;5075894;28;20052;-69
2022/04/17 01:13:19;;;;;;;13.05;10.25;;;10.50;99.90;;;10.71;52.49;102819.03;5057868;28;20090;-69
2022/04/17 01:15:49;;;;;;;10.60;9.48;;;10.50;99.90;;;10.70;52.40;102815.47;5075525;28;20049;-69
2022/04/17 01:18:18;;;;;;;12.90;10.38;;;10.60;99.90;;;10.68;52.75;102822.47;5075593;28;20098;-69
2022/04/17 01:20:46;;;;;;;11.75;9.98;;;10.50;99.90;;;10.50;52.86;102789.34;5075520;28;20048;-69
2022/04/17 01:28:48;;;;;;;13.75;10.95;;;10.60;99.90;;;10.46;52.86;102816.59;5075716;28;20049;-69
2022/04/17 01:31:16;;;;;;;12.10;9.73;;;10.40;99.90;;;10.44;52.93;102815.66;5075303;28;20394;-69
2022/04/17 01:33:48;;;;;;;11.80;10.20;;;10.30;99.90;;;10.34;53.26;102810.94;5075241;28;20414;-69
2022/04/17 01:36:16;;;;;;;13.13;10.20;;;10.20;99.90;;;10.30;53.33;102809.97;5075599;28;20053;-69
2022/04/17 01:38:46;;;;;;;10.82;9.70;;;10.20;99.90;;;10.24;53.70;102816.88;5057414;28;20072;-69
2022/04/17 01:41:15;;;;;;;13.77;10.20;;;10.10;99.90;;;10.23;53.70;102801.81;5075225;28;20053;-68
2022/04/17 01:43:44;;;;;;;13.43;10.90;;;10.10;99.90;;;9.99;53.83;102794.97;5074989;28;20037;-69
2022/04/17 01:46:13;;;;;;;11.52;9.93;;;10.00;99.90;;;10.00;54.23;102804.69;5074926;28;20389;-69
2022/04/17 01:48:41;;;;;;;12.18;10.13;;;9.90;99.90;;;10.21;53.69;102806.19;5074874;28;20133;-69
2022/04/17 01:51:10;;;;;;;12.05;10.40;;;9.90;99.90;;;10.31;52.92;102811.78;5075109;28;20045;-69
2022/04/17 01:53:38;;;;;;;15.07;10.50;;;10.10;99.90;;;10.12;53.24;102803.28;5074717;28;20072;-69
2022/04/17 01:56:08;;;;;;;12.63;10.52;;;10.00;99.90;;;10.09;53.47;102792.56;5074768;28;20402;-69
2022/04/17 01:58:37;;;;;;;14.43;10.27;;;10.00;99.90;;;10.25;53.08;102813.34;5075056;28;20090;-69
2022/04/17 02:01:06;;;;;;;14.55;10.32;;;10.10;99.90;;;10.16;53.39;102802.53;5074680;28;20835;-69
2022/04/17 02:03:38;;;;;;;13.60;10.57;;;10.00;99.90;;;10.15;53.52;102801.63;5074722;28;20478;-69
2022/04/17 02:06:06;;;;;;;13.20;10.80;;;10.00;99.90;;;10.24;52.98;102801.00;5074510;28;20123;-69
2022/04/17 02:08:35;;;;;;;12.45;10.85;;;10.00;99.90;;;10.04;53.35;102801.25;5074759;28;20391;-69
2022/04/17 02:11:03;;;;;;;12.93;10.77;;;10.00;99.90;;;9.99;53.29;102802.88;5074463;28;20083;-69
2022/04/17 02:13:34;;;;;;;15.32;10.70;;;9.80;99.90;;;9.90;53.10;102800.00;5074703;28;20386;-69
2022/04/17 02:16:02;;;;;;;;;;;9.80;99.90;;;9.82;52.55;102797.97;5074772;28;20041;-69
2022/04/17 02:18:31;;;;;;;13.07;11.40;;;9.70;99.90;;;9.71;53.02;102794.13;5074628;28;19927;-69
2022/04/17 02:20:59;;;;;;;15.63;9.85;;;9.60;99.90;;;9.21;52.36;102697.50;5074528;28;20057;-69
2022/04/17 02:23:28;;;;;;;13.18;10.38;;;9.60;99.90;;;9.69;53.04;102794.06;5074559;28;20136;-68
2022/04/17 02:25:56;;;;;;;12.77;10.63;;;9.50;99.90;;;9.70;51.75;102792.31;5074051;28;20052;-69
2022/04/17 02:28:25;;;;;;;12.80;10.52;;;9.50;99.90;;;9.55;51.65;102778.63;5074121;28;20119;-69
2022/04/17 02:30:54;;;;;;;13.27;10.48;;;9.40;99.90;;;9.71;51.54;102792.38;5074195;28;20076;-69
2022/04/17 02:33:23;;;;;;;14.15;11.00;;;9.50;99.90;;;9.72;52.07;102783.56;5074351;28;20438;-69
2022/04/17 02:35:51;;;;;;;15.85;11.20;;;9.50;99.90;;;9.69;51.97;102783.50;5073945;28;20079;-68
2022/04/17 02:38:19;;;;;;;13.52;10.88;;;9.50;99.90;;;9.55;51.63;102753.13;5073079;28;20048;-69
2022/04/17 02:40:48;;;;;;;13.80;10.70;;;9.60;99.90;;;9.64;51.45;102782.44;5073519;28;20052;-68
2022/04/17 02:43:16;;;;;;;13.82;10.68;;;9.60;99.90;;;9.57;51.50;102774.31;5073901;28;20119;-68
2022/04/17 02:45:45;;;;;;;15.43;10.95;;;9.40;99.90;;;9.63;52.09;102774.47;5073771;28;20072;-69
2022/04/17 02:48:15;;;;;;;15.55;10.13;;;9.50;99.90;;;9.52;51.51;102778.56;5055770;28;20139;-68
2022/04/17 02:50:43;;;;;;;13.33;10.43;;;9.40;99.90;;;9.58;51.61;102769.06;5073998;28;20068;-69
2022/04/17 02:53:12;;;;;;;13.48;10.98;;;9.40;99.90;;;9.60;50.66;102769.13;5073985;28;20525;-69
2022/04/17 02:55:40;;;;;;;13.23;10.52;;;9.40;99.90;;;9.59;50.77;102770.88;5073861;28;20450;-69
2022/04/17 02:58:10;;;;;;;12.85;10.52;;;9.40;99.90;;;9.68;50.48;102768.47;5073547;28;20094;-69
2022/04/17 03:05:36;;;;;;;16.42;10.30;;;9.50;99.90;;;9.64;50.80;102765.72;5073814;28;20102;-69
2022/04/17 03:06:16;;;;;;;12.18;10.68;;;9.50;99.90;;;9.60;51.29;102762.06;5073733;28;20060;-69
2022/04/17 03:08:44;;;;;;;13.02;11.27;;;9.50;99.90;;;9.59;51.24;102762.94;5073687;28;20041;-69
2022/04/17 03:11:12;;;;;;;14.52;10.90;;;9.50;99.90;;;9.60;51.14;102767.34;5074068;28;20040;-68
2022/04/17 03:13:41;;;;;;;13.35;10.40;;;9.50;99.90;;;9.59;50.75;102765.56;5073329;28;20080;-69
2022/04/17 03:16:11;;;;;;;13.77;10.82;;;9.50;99.90;;;9.68;50.83;102773.75;5073868;28;20103;-69
2022/04/17 03:18:41;;;;;;;13.02;10.68;;;9.50;99.90;;;9.74;50.59;102762.47;5073361;28;20037;-70
2022/04/17 03:21:09;;;;;;;13.68;11.20;;;9.60;99.90;;;9.76;50.24;102763.41;5073707;28;20048;-69
2022/04/17 03:23:37;;;;;;;13.82;10.93;;;9.60;99.90;;;9.55;50.27;102726.72;5073230;28;20052;-68
2022/04/17 03:26:06;;;;;;;14.40;9.85;;;9.60;99.90;;;9.71;50.12;102760.66;5073205;28;20067;-69
2022/04/17 03:28:34;;;;;;;13.50;10.70;;;9.60;99.90;;;9.68;50.08;102755.28;5073059;28;20491;-68
2022/04/17 03:31:04;;;;;;;14.75;11.13;;;9.50;99.90;;;9.61;50.84;102753.31;5073386;28;20063;-69
2022/04/17 03:33:32;;;;;;;13.07;10.63;;;9.50;99.90;;;9.70;50.69;102753.56;5073383;28;20040;-69
2022/04/17 03:36:02;;;;;;;14.15;11.23;;;9.50;99.90;;;9.87;49.91;102757.59;5073399;28;20135;-69
2022/04/17 03:38:31;;;;;;;14.77;11.17;;;9.60;99.90;;;9.95;50.10;102748.13;5073396;28;20461;-69
2022/04/17 03:40:59;;;;;;;14.18;10.80;;;9.70;99.90;;;10.12;50.11;102751.31;5073139;28;20709;-68
2022/04/17 03:43:28;;;;;;;14.57;11.82;;;9.80;99.90;;;10.32;49.74;102754.47;5073295;28;20152;-69
2022/04/17 03:45:57;;;;;;;15.38;10.80;;;10.10;99.90;;;10.09;50.02;102758.19;5073259;28;20471;-68
2022/04/17 03:48:25;;;;;;;13.38;10.48;;;9.90;99.90;;;10.09;50.05;102747.63;5072851;28;20124;-69
2022/04/17 03:50:53;;;;;;;14.25;11.63;;;9.90;99.90;;;9.90;50.47;102752.41;5072715;28;20102;-69
2022/04/17 03:53:23;;;;;;;14.65;11.77;;;9.90;99.90;;;9.88;50.36;102756.75;5072844;28;20048;-69
2022/04/17 03:55:52;;;;;;;13.52;11.70;;;9.70;99.90;;;9.98;50.40;102740.31;5073147;28;20101;-69
2022/04/17 03:58:20;;;;;;;12.30;11.00;;;9.80;99.90;;;9.90;50.39;102747.13;5055056;28;20052;-69
2022/04/17 04:00:49;;;;;;;16.58;11.23;;;9.70;99.90;;;10.01;50.85;102758.88;5072834;28;20502;-69
2022/04/17 04:03:17;;;;;;;12.63;10.80;;;9.80;99.90;;;9.80;51.04;102746.81;5073127;28;20041;-68
2022/04/17 04:05:46;;;;;;;13.68;11.25;;;9.70;99.90;;;9.75;50.74;102744.06;5073110;28;20068;-69
2022/04/17 04:08:15;;;;;;;15.70;11.10;;;9.70;99.90;;;9.52;51.03;102736.28;5072912;28;20047;-69
2022/04/17 04:10:44;;;;;;;14.75;11.75;;;9.50;99.90;;;9.43;51.50;102744.81;5072712;28;20044;-69
2022/04/17 04:13:13;;;;;;;15.33;11.47;;;9.30;99.90;;;9.33;51.45;102732.19;5072791;28;20094;-69
2022/04/17 04:15:41;;;;;;;14.90;12.52;;;9.20;99.90;;;9.18;52.01;102728.16;5073198;28;20044;-69
2022/04/17 04:18:09;;;;;;;14.02;12.00;;;9.10;99.90;;;9.12;52.81;102730.66;5072674;28;20068;-69
2022/04/17 04:20:38;;;;;;;16.45;11.45;;;9.00;99.90;;;9.07;52.55;102717.31;5072629;28;20063;-69
2022/04/17 04:23:06;;;;;;;18.35;12.07;;;8.90;99.90;;;9.12;52.72;102720.97;5072627;28;20055;-69
2022/04/17 04:25:34;;;;;;;13.07;11.65;;;8.90;99.90;;;9.00;52.97;102726.75;5072771;28;20453;-68
2022/04/17 04:30:51;;;;;;;15.50;11.95;;;8.80;99.90;;;8.81;53.44;102699.72;5072571;28;20040;-69
2022/04/17 04:33:20;;;;;;;16.77;12.05;;;8.80;99.90;;;8.85;53.47;102721.00;5072566;28;20409;-69
2022/04/17 04:35:48;;;;;;;15.40;12.02;;;8.80;99.90;;;8.87;53.80;102715.75;5072908;28;20052;-69
2022/04/17 04:38:16;;;;;;;13.80;11.95;;;8.70;99.90;;;8.92;53.46;102720.34;5054991;28;20044;-68
2022/04/17 04:40:45;;;;;;;15.02;12.13;;;8.70;99.90;;;9.00;53.27;102707.41;5072711;28;20120;-68
2022/04/17 04:43:14;;;;;;;15.55;12.45;;;8.80;99.90;;;9.04;53.54;102710.16;5072462;28;20119;-69
2022/04/17 04:51:16;;;;;;;15.45;12.10;;;8.70;99.90;;;8.74;54.05;102709.22;5072252;28;20041;-69
2022/04/17 04:53:44;;;;;;;17.33;13.02;;;8.60;99.90;;;8.86;53.91;102713.97;5072243;28;20136;-69
2022/04/17 04:56:13;;;;;;;16.40;12.10;;;8.70;99.90;;;8.98;53.44;102711.75;5072451;28;20441;-68
2022/04/17 04:58:43;;;;;;;14.43;11.77;;;8.80;99.90;;;9.18;53.38;102710.59;5072390;28;20067;-69
2022/04/17 05:01:12;;;;;;;15.07;11.97;;;9.00;99.90;;;9.32;53.28;102713.66;5072213;28;20450;-69
2022/04/17 05:03:41;;;;;;;16.65;12.18;;;9.10;99.90;;;9.36;53.03;102721.72;5075337;28;20151;-69
2022/04/17 05:06:09;;;;;;;16.08;12.55;;;9.20;99.90;;;9.59;52.85;102709.19;5058094;28;20061;-69
2022/04/17 05:08:38;;;;;;;16.83;12.40;;;9.30;99.90;;;9.86;52.86;102710.88;5075815;28;20115;-70
2022/04/17 05:11:06;;;;;;;14.63;12.10;;;9.60;99.90;;;10.12;52.14;102718.66;5075482;28;20045;-69
2022/04/17 05:13:35;;;;;;;17.85;13.00;;;9.90;99.90;;;10.21;51.90;102716.25;5075549;28;20069;-69
2022/04/17 05:16:06;;;;;;;15.63;12.13;;;10.00;99.90;;;10.38;51.20;102717.59;5075850;28;20409;-69
2022/04/17 05:18:35;;;;;;;17.65;12.05;;;10.20;99.90;;;10.21;50.96;102721.53;5076144;28;20048;-69
2022/04/17 05:21:05;;;;;;;13.88;11.65;;;10.10;99.90;;;10.37;51.26;102723.75;5076058;28;20123;-69
2022/04/17 05:23:36;;;;;;;14.38;12.30;;;10.20;99.90;;;10.43;51.17;102729.22;5075708;28;20044;-69
2022/04/17 05:26:05;;;;;;;;;;;10.30;99.90;;;10.45;51.02;102717.78;5076164;28;20037;-69
2022/04/17 05:28:33;;;;;;;17.20;12.05;;;10.30;99.90;;;10.78;50.33;102728.34;5075541;28;19921;-69
2022/04/17 05:31:02;;;;;;;15.40;12.02;;;10.60;99.90;;;10.88;49.94;102730.34;5075246;28;20045;-69
2022/04/17 05:33:32;;;;;;;14.48;11.57;;;10.70;99.90;;;10.73;50.27;102728.22;5075422;28;20460;-69
2022/04/17 05:36:00;;;;;;;14.70;11.60;;;10.60;99.90;;;10.25;49.91;102647.63;5074252;28;20383;-69
2022/04/17 05:38:29;;;;;;;15.55;11.13;;;10.60;99.90;;;10.84;50.26;102734.66;5074087;28;20041;-69
2022/04/17 05:40:57;;;;;;;13.70;11.82;;;10.60;99.90;;;11.14;49.60;102726.56;5075004;28;20494;-69
2022/04/17 05:43:26;;;;;;;14.02;11.57;;;10.90;99.90;;;11.11;49.19;102729.13;5075329;28;20109;-69
2022/04/17 05:45:54;;;;;;;15.93;12.85;;;10.90;99.90;;;11.32;48.92;102729.66;5074986;28;20118;-69
2022/04/17 05:48:23;;;;;;;16.20;12.13;;;11.10;99.90;;;11.39;48.92;102730.66;5075145;28;20049;-70
2022/04/17 05:50:53;;;;;;;14.63;11.95;;;11.10;99.90;;;11.63;48.10;102728.56;5074905;28;20048;-69
2022/04/17 05:53:21;;;;;;;13.27;11.93;;;11.30;99.90;;;11.96;47.77;102728.38;5075228;28;20036;-70
2022/04/17 05:55:50;;;;;;;15.73;11.60;;;11.60;99.90;;;12.20;47.34;102742.09;5074804;28;20066;-69
2022/04/17 05:58:18;;;;;;;15.05;11.63;;;11.90;99.90;;;12.34;46.71;102737.94;5074934;28;20060;-70
2022/04/17 06:00:47;;;;;;;15.70;11.65;;;12.00;99.90;;;12.51;46.57;102740.03;5074796;28;20452;-70
2022/04/17 06:03:16;;;;;;;12.80;11.10;;;12.20;99.90;;;12.59;45.96;102714.53;5074647;28;20047;-70
2022/04/17 06:05:45;;;;;;;13.52;10.77;;;12.40;99.90;;;12.80;44.96;102721.94;5074631;28;20521;-70
2022/04/17 06:08:14;;;;;;;13.93;11.15;;;12.60;99.90;;;12.25;45.29;102644.91;5074461;28;20474;-70
2022/04/17 06:10:43;;;;;;;12.75;10.95;;;12.50;99.90;;;12.68;45.89;102727.94;5074487;28;20040;-70
2022/04/17 06:13:11;;;;;;;15.45;10.63;;;12.40;99.90;;;12.18;46.49;102727.91;5073880;28;20064;-69
2022/04/17 06:15:40;;;;;;;13.63;10.48;;;12.00;99.90;;;11.79;47.82;102734.22;5074319;28;20429;-70
2022/04/17 06:18:10;;;;;;;14.38;11.05;;;11.60;99.90;;;11.75;47.95;102731.47;5074256;28;20444;-70
2022/04/17 06:20:38;;;;;;;14.52;10.45;;;11.40;99.90;;;11.99;48.75;102739.03;5074556;28;20039;-70
2022/04/17 06:23:07;;;;;;;12.70;10.77;;;11.50;99.90;;;11.60;49.14;102729.38;5073246;28;20402;-70
2022/04/17 06:25:37;;;;;;;14.18;10.95;;;11.30;99.90;;;11.86;50.06;102735.25;5074159;28;20127;-70
2022/04/17 06:28:06;;;;;;;13.57;10.57;;;11.40;99.90;;;11.47;49.54;102735.28;5074266;28;20071;-70
2022/04/17 06:30:34;;;;;;;12.20;10.30;;;11.10;99.90;;;11.29;50.36;102724.25;5073886;28;20286;-70
2022/04/17 06:33:03;;;;;;;12.57;10.40;;;11.00;99.90;;;10.97;51.45;102732.31;5073961;28;20064;-70
2022/04/17 06:35:31;;;;;;;15.07;11.05;;;10.80;99.90;;;10.71;50.27;102724.66;5073297;28;20041;-70
2022/04/17 06:38:02;;;;;;;12.57;9.93;;;10.50;99.90;;;10.53;49.42;102718.88;5055904;28;20402;-70
2022/04/17 06:40:33;;;;;;;12.35;10.30;;;10.30;99.90;;;10.49;51.12;102718.78;5074366;28;20504;-70
2022/04/17 06:43:05;;;;;;;;;;;10.30;99.90;;;10.77;51.69;102727.44;5034415;28;20076;-70
2022/04/17 06:45:36;;;;;;;13.00;9.52;;;10.40;99.90;;;10.69;51.27;102713.13;5033973;28;19921;-69
2022/04/17 06:48:16;;;;;;;10.98;9.88;;;10.40;99.90;;;10.65;51.00;102721.84;5033667;28;20053;-69
2022/04/17 06:50:46;;;;;;;10.65;9.52;;;10.40;99.90;;;10.83;50.21;102732.00;5049300;28;20407;-69
2022/04/17 06:53:16;;;;;;;11.38;10.05;;;10.50;99.90;;;10.79;49.59;102724.84;5034302;28;20041;-69
2022/04/17 06:55:44;;;;;;;12.63;10.13;;;10.50;99.90;;;10.64;50.33;102690.06;5033653;28;20458;-69
2022/04/17 06:58:14;;;;;;;10.45;9.40;;;10.50;99.90;;;10.82;48.58;102715.22;5033873;28;20430;-70
2022/04/17 07:00:42;;;;;;;11.00;8.70;;;10.60;99.90;;;10.86;48.19;102708.22;5033796;28;20103;-69
2022/04/17 07:03:11;;;;;;;12.55;9.57;;;10.60;99.90;;;10.83;47.54;102708.16;5033597;28;20041;-69
2022/04/17 07:05:39;;;;;;;9.73;8.63;;;10.60;99.90;;;11.18;49.26;102709.00;5033731;28;20439;-70
2022/04/17 07:08:09;;;;;;;11.02;8.93;;;10.90;99.90;;;11.23;47.41;102712.63;5033717;28;20041;-69
2022/04/17 07:10:39;;;;;;;15.20;9.10;;;11.00;99.90;;;11.06;47.66;102692.81;5033719;28;20402;-70
2022/04/17 07:13:11;;;;;;;11.50;9.20;;;11.00;99.90;;;11.16;47.45;102716.91;5033694;28;20045;-69
2022/04/17 07:15:41;;;;;;;10.32;8.95;;;11.00;99.90;;;11.31;46.30;102713.69;5033371;28;20450;-70
2022/04/17 07:18:09;;;;;;;12.10;9.20;;;11.10;99.90;;;11.29;45.85;102718.06;5033647;28;20045;-69
2022/04/17 07:20:38;;;;;;;9.82;8.40;;;11.10;99.90;;;11.32;45.08;102707.53;5033631;28;20474;-69
2022/04/17 07:23:07;;;;;;;12.95;8.55;;;11.10;99.90;;;11.54;47.39;102717.72;5033235;28;20122;-69
2022/04/17 07:25:36;;;;;;;10.52;9.43;;;11.30;99.90;;;11.71;47.67;102713.72;5032523;28;20056;-69
2022/04/17 07:28:06;;;;;;;12.25;8.80;;;11.40;99.90;;;11.89;48.23;102719.38;5032044;28;20454;-70
2022/04/17 07:30:36;;;;;;;10.25;9.02;;;11.50;99.90;;;11.69;46.13;102712.81;5033060;28;20064;-69
2022/04/17 07:33:06;;;;;;;11.30;9.13;;;11.50;99.90;;;11.66;45.56;102718.94;5033385;28;20395;-69
2022/04/17 07:35:34;;;;;;;13.83;8.90;;;11.40;99.90;;;11.91;45.56;102712.34;5033402;28;20103;-70
2022/04/17 07:38:05;;;;;;;12.40;8.25;;;11.60;99.90;;;11.89;45.55;102690.22;5033098;28;20350;-70
2022/04/17 07:40:36;;;;;;;9.50;8.50;;;11.70;99.90;;;11.87;43.93;102705.22;5033479;28;20095;-69
2022/04/17 07:43:06;;;;;;;9.13;8.23;;;11.60;99.90;;;12.19;45.37;102695.22;5033330;28;20053;-70
2022/04/17 07:45:35;;;;;;;9.98;8.15;;;11.80;99.90;;;12.22;45.17;102703.22;5033233;28;20045;-70
2022/04/17 07:48:06;;;;;;;9.55;8.55;;;11.90;99.90;;;11.99;43.64;102708.09;5033102;28;20095;-70
2022/04/17 07:50:34;;;;;;;;;;;11.80;99.90;;;12.02;44.97;102705.50;5033306;28;20037;-69
2022/04/17 07:53:03;;;;;;;10.07;8.75;;;11.70;99.90;;;12.01;44.01;102705.47;5032738;28;20339;-70
2022/04/17 07:55:31;;;;;;;9.35;8.23;;;11.70;99.90;;;12.40;44.27;102714.19;5033084;28;20404;-69
2022/04/17 07:58:07;;;;;;;10.05;8.65;;;12.00;99.90;;;12.72;44.66;102701.47;5033366;28;20077;-70
2022/04/17 08:00:47;;;;;;;9.43;8.43;;;12.40;99.90;;;12.76;43.39;102697.94;5031763;28;20087;-70
2022/04/17 08:03:35;;;;;;;8.57;7.78;;;12.50;99.90;;;12.78;42.70;102698.88;5032803;28;20119;-70
2022/04/17 08:06:05;;;;;;;11.80;8.55;;;12.50;99.90;;;12.85;42.38;102695.47;5032387;28;20111;-70
2022/04/17 08:08:35;;;;;;;10.02;8.57;;;12.70;99.90;;;12.66;43.02;102691.59;5032683;28;20396;-69
2022/04/17 08:11:04;;;;;;;14.20;8.40;;;12.50;99.90;;;12.85;42.49;102699.03;5031584;28;20050;-69
2022/04/17 08:13:33;;;;;;;12.23;8.25;;;12.60;99.90;;;13.07;44.04;102694.94;5033298;28;20041;-70
2022/04/17 08:16:04;;;;;;;9.40;8.40;;;12.70;99.90;;;13.15;42.50;102664.06;5032807;28;20430;-70
2022/04/17 08:18:34;;;;;;;9.15;8.27;;;13.00;99.90;;;13.65;42.06;102691.28;5031260;28;20053;-70
2022/04/17 08:21:04;;;;;;;9.52;7.60;;;13.30;99.90;;;13.04;42.73;102658.59;5032599;28;20562;-70
2022/04/17 08:23:34;;;;;;;8.98;7.20;;;13.00;99.90;;;13.78;41.52;102701.22;5032893;28;20053;-70
2022/04/17 08:26:03;;;;;;;9.38;7.78;;;13.40;99.90;;;13.88;40.99;102690.69;5032636;28;20042;-69
2022/04/17 08:28:32;;;;;;;9.88;7.95;;;13.60;99.90;;;14.30;40.12;102692.94;5032838;28;20404;-70
2022/04/17 08:31:01;;;;;;;9.05;8.10;;;14.00;99.90;;;14.59;39.70;102691.44;5032721;28;20038;-70
2022/04/17 08:33:29;;;;;;;8.25;7.28;;;14.20;99.90;;;14.99;39.61;102692.63;5032506;28;20065;-71
2022/04/17 08:35:59;;;;;;;8.40;7.43;;;14.70;99.90;;;14.51;38.67;102626.56;5032950;28;20044;-70
2022/04/17 08:38:27;;;;;;;8.30;7.50;;;14.70;99.90;;;14.56;39.28;102682.50;5036810;28;20044;-70
2022/04/17 08:40:59;;;;;;;12.82;7.90;;;14.40;99.90;;;14.34;38.59;102677.00;5041883;28;20328;-70
2022/04/17 08:43:29;;;;;;;9.35;8.35;;;14.10;99.90;;;13.48;38.78;102577.66;5076248;28;20123;-70
2022/04/17 08:45:58;;;;;;;9.50;7.70;;;13.90;99.90;;;14.75;38.61;102680.00;5058980;28;20040;-70
2022/04/17 08:48:27;;;;;;;9.82;8.15;;;14.30;99.90;;;14.81;38.71;102676.50;5075946;28;20045;-71
2022/04/17 08:50:57;;;;;;;9.48;8.45;;;14.60;99.90;;;14.82;39.57;102679.19;5076741;28;20071;-70
2022/04/17 08:53:28;;;;;;;11.93;8.77;;;14.50;99.90;;;14.57;39.40;102678.97;5059618;28;20049;-70
2022/04/17 08:55:57;;;;;;;8.70;7.68;;;14.50;99.90;;;14.51;37.41;102671.84;5076045;28;20144;-70
2022/04/17 08:58:25;;;;;;;8.35;7.18;;;14.20;99.90;;;14.50;37.11;102667.38;5075807;28;20033;-70
2022/04/17 09:00:53;;;;;;;7.93;7.00;;;14.20;99.90;;;14.76;39.12;102668.50;5076232;28;20047;-70
2022/04/17 09:03:23;;;;;;;8.25;7.20;;;14.30;99.90;;;15.12;36.67;102652.72;5075781;28;20524;-70
2022/04/17 09:05:53;;;;;;;8.38;7.57;;;14.80;99.90;;;15.47;37.21;102666.25;5076216;28;20048;-70
2022/04/17 09:08:22;;;;;;;10.70;7.85;;;15.20;99.90;;;15.11;38.35;102648.28;5076282;28;20048;-70
2022/04/17 09:10:57;;;;;;;9.93;8.32;;;15.10;99.90;;;14.63;37.95;102663.06;5075269;28;20051;-72
2022/04/17 09:13:31;;;;;;;9.18;8.25;;;14.50;99.90;;;15.28;38.68;102667.03;5076047;28;20402;-70
2022/04/17 09:16:02;;;;;;;10.20;7.95;;;14.90;99.90;;;14.90;38.09;102669.50;5075791;28;20040;-70
2022/04/17 09:18:31;;;;;;;;;;;14.70;99.90;;;14.64;37.83;102663.06;5075655;28;20047;-69
2022/04/17 09:21:02;;;;;;;9.43;8.52;;;14.40;99.90;;;14.60;39.63;102639.03;5057371;28;20305;-70
2022/04/17 09:23:36;;;;;;;9.35;8.45;;;14.50;99.90;;;14.51;39.16;102633.66;5075736;28;20059;-70
2022/04/17 09:26:08;;;;;;;9.05;8.15;;;14.30;99.90;;;14.82;38.41;102655.22;5075851;28;20119;-70
2022/04/17 09:28:38;;;;;;;9.25;7.90;;;14.40;99.90;;;15.30;38.75;102654.59;5075128;28;20052;-70
2022/04/17 09:31:14;;;;;;;9.65;8.05;;;14.80;99.90;;;15.22;37.45;102609.25;5074950;28;20040;-70
2022/04/17 09:33:49;;;;;;;10.35;8.30;;;15.20;99.90;;;15.26;37.26;102647.47;5075375;28;20055;-70
2022/04/17 09:36:18;;;;;;;11.25;7.60;;;15.10;99.90;;;15.14;37.66;102636.72;5057775;28;20495;-70
2022/04/17 09:38:47;;;;;;;9.07;8.18;;;15.00;99.90;;;15.12;37.12;102639.41;5074976;28;20086;-70
2022/04/17 09:41:19;;;;;;;11.70;8.93;;;14.90;99.90;;;15.80;36.98;102630.78;5074895;28;20114;-69
2022/04/17 09:43:48;;;;;;;8.82;7.90;;;15.30;99.90;;;15.82;37.56;102645.03;5075229;28;20091;-70
2022/04/17 09:46:17;;;;;;;10.45;8.05;;;15.50;99.90;;;14.92;36.39;102629.50;5074725;28;20055;-70
2022/04/17 09:48:46;;;;;;;9.55;8.05;;;14.80;99.90;;;15.15;37.37;102631.44;5074104;28;20148;-70
2022/04/17 09:51:22;;;;;;;10.82;8.52;;;14.80;99.90;;;15.15;36.05;102625.19;5074695;28;20068;-70
2022/04/17 09:54:00;;;;;;;10.38;8.57;;;14.90;99.90;;;15.13;38.12;102613.63;5075010;28;20048;-70
2022/04/17 09:56:35;;;;;;;9.73;8.27;;;14.80;99.90;;;15.13;37.10;102606.53;5075015;28;20052;-70
2022/04/17 09:59:17;;;;;;;9.85;8.65;;;14.90;99.90;;;15.36;36.18;102603.97;5074632;28;20075;-70
2022/04/17 10:01:49;;;;;;;8.77;7.88;;;15.00;99.90;;;15.15;36.53;102606.53;5074885;28;20052;-71
2022/04/17 10:04:19;;;;;;;9.85;8.00;;;14.90;99.90;;;15.40;37.16;102589.75;5075089;28;20041;-70
2022/04/17 10:06:49;;;;;;;11.23;8.63;;;15.10;99.90;;;15.66;37.77;102617.41;5074234;28;20047;-70
2022/04/17 10:09:18;;;;;;;9.45;8.48;;;15.40;99.90;;;15.41;37.13;102599.53;5056219;28;20455;-71
2022/04/17 10:11:49;;;;;;;10.45;8.73;;;15.20;99.90;;;15.36;37.44;102596.88;5074584;28;20041;-70
2022/04/17 10:14:17;;;;;;;;;;;15.10;99.90;;;15.74;37.11;102583.66;5056992;28;20068;-70
2022/04/17 10:16:48;;;;;;;12.10;9.15;;;15.40;99.90;;;15.79;37.77;102581.91;5074245;28;19971;-70
2022/04/17 10:19:18;;;;;;;;;;;15.50;99.90;;;15.95;38.51;102578.34;5074740;28;20044;-70
2022/04/17 10:21:47;;;;;;;13.23;8.60;;;15.60;99.90;;;15.35;35.03;102563.06;5074431;28;19921;-70
2022/04/17 10:24:18;;;;;;;9.35;8.32;;;15.30;99.90;;;15.73;36.64;102575.66;5073988;28;20123;-70
2022/04/17 10:26:49;;;;;;;9.05;7.93;;;15.50;99.90;;;15.66;36.94;102576.53;5074731;28;20051;-71
2022/04/17 10:29:27;;;;;;;9.30;8.35;;;15.40;99.90;;;15.82;36.04;102552.53;5074366;28;20056;-71
2022/04/17 10:32:15;;;;;;;9.25;8.35;;;15.50;99.90;;;16.58;38.67;102574.78;5073988;28;20075;-71
2022/04/17 10:35:13;;;;;;;9.93;8.77;;;16.10;99.90;;;16.64;39.24;102568.53;5074221;28;20401;-71
2022/04/17 10:38:24;;;;;;;9.45;8.48;;;16.40;99.90;;;16.32;35.82;102541.84;5074117;28;20460;-71